Current Weather

Kayes/Dag-Dag

Kayes/Dag-Dag, Mali (GAKD)

Report from: Tuesday, June 18, 2024 12:00 PM UTC
Current time: Tuesday, June 18, 2024 12:34 PM UTC

Nearby weather – Weather history – Daily summaries
Weather forecast

Temperature31.0°C (87.8°F)
Heat index37.8°C (100.0°F)
Dew point25.0°C (77.0°F)
Winds 4 kts (2.1 m/s, 4.6 mph) Southwest (220°)
Visibility6.2 mi. (10 km)
Clouds Few clouds 3,000 ft. (914 m)
Altimeter29.91 in.Hg (1013 mB)
Relative humidity71 %
Density altitude2,261 ft. (689 m)
Flight conditions Visual Meteorological Conditions
Raw dataGAKD 181200Z 22004KT 9999 FEW030 31/25 Q1013
An error has occurred. This application may no longer respond until reloaded. Reload 🗙